Impacts METAR Board
IDs:

KLHB - Hearne Muni, TX, US

Updated at: 1200 UTC 16 Jul 2019
Potential Impact None Slight Moderate High
Time 16/00Z 16/01Z 16/02Z 16/03Z 16/04Z 16/05Z 16/06Z 16/07Z 16/08Z 16/09Z 16/10Z 16/11Z 16/12Z
Temp91 89 85 83 82 82 81 80 79 78 78 78 78
Dewpt79 79 78 78 78 78 78 78 78 78 78 78 78
Altim29.88 29.89 29.89 29.90 29.92 29.94 29.95 29.95 29.95 29.97 29.97 29.99 30.00
VIS10 10 10 10 10 10 10 10 10 10 10 10 10
CIG-- -- -- -- -- -- -- -- -- -- 12 20 12
CoverCLRSCTSCTCLRCLRCLRCLRCLRSCTSCTOVCBKNBKN
FltCatVFRVFRVFRVFRVFRVFRVFRVFRVFRVFRMVFRMVFRMVFR
WX--------------------------
WDir110100120120130140140150150140150170170
WSpd4 4 4 3 5 6 6 8 7 6 5 8 8
WGst-- -- -- -- -- -- -- -- -- -- -- -- --
Raw hourly METARs
KLHB 152355Z AUTO 11004KT 10SM CLR 33/26 A2988 RMK AO2 T03270261 10349 20317
KLHB 160055Z AUTO 10004KT 10SM SCT050 32/26 A2989 RMK AO2 T03150262
KLHB 160155Z AUTO 12004KT 10SM SCT060 30/26 A2989 RMK AO2 T02970258
KLHB 160255Z AUTO 12003KT 10SM CLR 29/26 A2990 RMK AO2 T02850255
KLHB 160355Z AUTO 13005KT 10SM CLR 28/26 A2992 RMK AO2 T02800258
KLHB 160455Z AUTO 14006KT 10SM CLR 28/26 A2994 RMK AO2 T02760257
KLHB 160555Z AUTO 14006KT 10SM CLR 27/26 A2995 RMK AO2 T02700256 10327 20270 403490226
KLHB 160655Z AUTO 15008KT 10SM CLR 27/26 A2995 RMK AO2 T02670255
KLHB 160755Z AUTO 15007KT 10SM SCT014 26/26 A2995 RMK AO2 T02610255
KLHB 160855Z AUTO 14006KT 10SM SCT012 26/25 A2997 RMK AO2 T02570254
KLHB 160955Z AUTO 15005KT 10SM OVC012 26/25 A2997 RMK AO2 T02560254
KLHB 161055Z AUTO 17008KT 10SM SCT012 BKN020 26/25 A2999 RMK AO2 T02560253
KLHB 161155Z AUTO 17008KT 10SM BKN012 BKN020 26/25 A3000 RMK AO2 T02570253 10270 20256